createdAt,value
2022-09-13T00:03:04.014Z,70.90
2022-09-13T00:07:07.590Z,71.66
2022-09-13T00:11:17.399Z,70.88
2022-09-13T00:15:20.935Z,69.24
2022-09-13T00:19:25.725Z,69.16
2022-09-13T00:23:29.144Z,69.15
2022-09-13T00:27:34.263Z,69.85
2022-09-13T00:31:38.025Z,70.33
2022-09-13T00:35:42.413Z,70.36
2022-09-13T00:39:49.617Z,71.31
2022-09-13T00:43:55.346Z,71.52
2022-09-13T00:48:02.974Z,71.43
2022-09-13T00:52:11.414Z,71.92
2022-09-13T00:56:20.896Z,72.18
2022-09-13T01:00:23.995Z,72.49
2022-09-13T01:04:30.570Z,72.58
2022-09-13T01:08:38.717Z,72.04
2022-09-13T01:12:47.698Z,72.00
2022-09-13T01:16:51.737Z,71.87
2022-09-13T01:21:29.361Z,70.37
2022-09-13T01:26:14.043Z,70.35
2022-09-13T01:30:23.495Z,71.42
2022-09-13T01:34:36.180Z,71.06
2022-09-13T01:38:55.462Z,70.81
2022-09-13T01:43:14.561Z,71.56
2022-09-13T01:47:29.381Z,72.12
2022-09-13T01:51:38.705Z,72.39
2022-09-13T01:55:49.254Z,71.99
2022-09-13T01:59:56.157Z,72.22
2022-09-13T02:04:07.756Z,71.65
2022-09-13T02:08:17.186Z,72.07
2022-09-13T02:12:23.565Z,72.34
2022-09-13T02:16:32.806Z,72.22
2022-09-13T02:20:40.451Z,72.50
2022-09-13T02:24:48.018Z,72.47
2022-09-13T02:28:54.190Z,71.65
2022-09-13T02:33:02.648Z,71.48
2022-09-13T02:37:10.318Z,71.11
2022-09-13T02:41:21.011Z,71.08
2022-09-13T02:45:35.588Z,71.03
2022-09-13T02:49:51.726Z,71.02
2022-09-13T02:54:05.568Z,71.53
2022-09-13T02:58:15.565Z,71.79
2022-09-13T03:02:23.826Z,72.41
2022-09-13T03:06:28.952Z,72.97
2022-09-13T03:10:46.590Z,72.33
2022-09-13T03:14:58.651Z,72.81
2022-09-13T03:19:19.587Z,72.39
2022-09-13T03:23:39.663Z,72.72
2022-09-13T03:27:52.725Z,73.28
2022-09-13T03:32:07.446Z,72.82
2022-09-13T03:36:17.115Z,73.38
2022-09-13T03:40:27.309Z,73.50
2022-09-13T03:44:34.171Z,73.73
2022-09-13T03:48:41.123Z,73.75
2022-09-13T03:52:46.591Z,73.14
2022-09-13T03:57:07.947Z,72.34
2022-09-13T04:01:12.944Z,73.37
2022-09-13T04:05:16.654Z,73.53
2022-09-13T04:09:19.615Z,72.92
2022-09-13T04:13:23.522Z,72.45
2022-09-13T04:17:29.224Z,72.30
2022-09-13T04:21:32.455Z,72.06
2022-09-13T04:25:36.007Z,72.48
2022-09-13T04:29:39.254Z,72.69
2022-09-13T04:33:44.398Z,72.76
2022-09-13T04:37:48.573Z,73.09
2022-09-13T04:41:54.711Z,73.30
2022-09-13T04:46:02.835Z,73.15
2022-09-13T04:50:10.620Z,73.58
2022-09-13T04:54:15.996Z,73.35
2022-09-13T04:58:19.928Z,73.27
2022-09-13T05:02:23.529Z,72.74
2022-09-13T05:06:28.779Z,72.23
2022-09-13T05:10:32.310Z,72.63
2022-09-13T05:14:35.923Z,72.92
2022-09-13T05:18:45.152Z,73.21
2022-09-13T05:22:50.374Z,73.72
2022-09-13T05:26:53.828Z,73.83
2022-09-13T05:30:58.511Z,73.54
2022-09-13T05:35:02.016Z,73.78
2022-09-13T05:43:34.419Z,73.41
2022-09-13T05:47:49.991Z,73.23
2022-09-13T05:51:53.423Z,73.62
2022-09-13T05:55:58.101Z,73.23
2022-09-13T06:00:01.681Z,73.21
2022-09-13T06:04:05.354Z,74.19
2022-09-13T06:08:09.172Z,74.47
2022-09-13T06:12:13.627Z,74.40
2022-09-13T06:16:17.827Z,75.23
2022-09-13T06:20:21.428Z,74.61
2022-09-13T06:24:24.498Z,74.82
2022-09-13T06:28:29.254Z,74.62
2022-09-13T06:32:32.824Z,74.10
2022-09-13T06:36:35.808Z,75.38
2022-09-13T06:40:39.557Z,74.61
2022-09-13T06:44:46.493Z,74.18
2022-09-13T06:48:50.227Z,74.42
2022-09-13T06:52:54.143Z,73.91
2022-09-13T06:56:57.384Z,72.27
2022-09-13T07:01:15.734Z,70.36
2022-09-13T07:05:21.332Z,70.49
2022-09-13T07:09:25.207Z,70.39
2022-09-13T07:13:28.723Z,70.17
2022-09-13T07:17:33.583Z,70.28
2022-09-13T07:21:37.037Z,69.46
2022-09-13T07:25:40.512Z,68.61
2022-09-13T07:29:44.697Z,66.75
2022-09-13T07:33:50.309Z,65.98
2022-09-13T07:37:53.978Z,63.84
2022-09-13T07:41:57.064Z,63.14
2022-09-13T07:46:01.993Z,63.19
2022-09-13T07:50:08.263Z,63.07
2022-09-13T07:54:13.887Z,61.50
2022-09-13T07:58:16.954Z,59.36
2022-09-13T08:02:20.487Z,57.96
2022-09-13T08:06:26.340Z,58.47
2022-09-13T08:11:00.355Z,58.44
2022-09-13T08:20:37.375Z,58.22
2022-09-13T08:31:04.222Z,56.51
2022-09-13T08:36:12.520Z,53.56
2022-09-13T08:46:24.040Z,55.73
2022-09-13T08:56:34.991Z,52.35
2022-09-13T09:02:01.209Z,52.88
2022-09-13T09:06:02.694Z,48.68
2022-09-13T09:10:09.029Z,49.26
2022-09-13T09:14:19.095Z,47.86
2022-09-13T09:18:27.261Z,46.99
2022-09-13T09:22:36.534Z,49.64
2022-09-13T09:26:39.904Z,48.05
2022-09-13T09:30:50.668Z,47.04
2022-09-13T09:35:10.114Z,46.91
2022-09-13T09:39:16.569Z,45.12
2022-09-13T09:43:27.574Z,45.36
2022-09-13T09:47:41.741Z,44.99
2022-09-13T09:51:46.752Z,42.71
2022-09-13T09:55:53.944Z,42.01
2022-09-13T10:00:12.806Z,45.88
2022-09-13T10:04:23.398Z,44.67
2022-09-13T10:08:32.747Z,43.77
2022-09-13T10:12:38.649Z,40.75
2022-09-13T10:16:41.697Z,39.27
2022-09-13T10:21:02.283Z,42.21
2022-09-13T10:35:52.779Z,39.52
2022-09-13T10:40:33.266Z,42.27
2022-09-13T10:44:51.825Z,41.00
2022-09-13T10:49:31.318Z,39.13
2022-09-13T10:54:01.655Z,38.93
2022-09-13T10:58:19.217Z,40.49
2022-09-13T11:02:58.860Z,40.00
2022-09-13T11:07:25.468Z,40.35
2022-09-13T11:11:37.722Z,39.56
2022-09-13T11:16:11.759Z,40.95
2022-09-13T11:25:34.888Z,40.68
2022-09-13T11:30:11.530Z,40.07
2022-09-13T11:34:47.846Z,40.24
2022-09-13T11:39:11.434Z,36.60
2022-09-13T11:51:53.829Z,37.48
2022-09-13T11:56:02.694Z,38.01
2022-09-13T12:00:13.363Z,36.48
2022-09-13T12:04:25.617Z,36.65
2022-09-13T12:08:34.964Z,36.97
2022-09-13T12:12:39.526Z,36.28
2022-09-13T12:16:48.946Z,37.14
2022-09-13T12:20:55.285Z,36.00
2022-09-13T12:25:04.052Z,35.84
2022-09-13T12:29:16.686Z,36.72
2022-09-13T12:33:22.734Z,35.70
2022-09-13T12:37:48.124Z,37.49
2022-09-13T12:42:12.160Z,36.08
2022-09-13T12:46:53.196Z,33.88
2022-09-13T12:51:17.799Z,33.17
2022-09-13T12:55:49.677Z,33.92
2022-09-13T13:00:20.145Z,34.62
2022-09-13T13:04:32.619Z,33.71
2022-09-13T13:08:38.296Z,33.09
2022-09-13T13:12:42.899Z,33.15
2022-09-13T13:16:51.710Z,32.92
2022-09-13T13:21:26.931Z,36.02
2022-09-13T13:25:39.295Z,36.51
2022-09-13T13:29:42.886Z,34.95
2022-09-13T13:33:51.657Z,35.84
2022-09-13T13:38:16.197Z,34.78
2022-09-13T13:42:29.719Z,35.93
2022-09-13T13:46:36.442Z,34.86
2022-09-13T13:51:22.112Z,36.62
2022-09-13T13:55:43.629Z,37.84
2022-09-13T13:59:50.842Z,37.38
2022-09-13T14:04:27.113Z,38.69
2022-09-13T14:08:48.455Z,38.69
2022-09-13T14:17:42.192Z,38.75
2022-09-13T14:21:45.685Z,39.12
2022-09-13T14:25:55.981Z,39.20
2022-09-13T14:30:01.189Z,39.24
2022-09-13T14:34:06.069Z,38.34
2022-09-13T14:38:18.234Z,40.21
2022-09-13T14:42:21.834Z,39.80
2022-09-13T14:46:29.894Z,39.55
2022-09-13T14:50:39.062Z,42.22
2022-09-13T14:54:47.084Z,42.83
2022-09-13T14:58:54.634Z,43.05
2022-09-13T15:03:01.353Z,42.96
2022-09-13T15:07:20.388Z,43.89
2022-09-13T15:11:35.806Z,45.16
2022-09-13T15:15:41.353Z,45.68
2022-09-13T15:19:49.987Z,44.66
2022-09-13T15:23:55.013Z,45.78
2022-09-13T15:27:59.968Z,46.45
2022-09-13T15:32:04.157Z,47.63
2022-09-13T15:36:28.714Z,44.69
2022-09-13T15:40:43.973Z,45.39
2022-09-13T15:44:47.477Z,46.94
2022-09-13T15:48:54.369Z,46.24
2022-09-13T15:52:58.579Z,46.26
2022-09-13T15:57:04.125Z,47.01
2022-09-13T16:01:07.977Z,47.03
2022-09-13T16:05:12.132Z,46.84
2022-09-13T16:09:20.489Z,47.78
2022-09-13T16:13:24.966Z,50.16
2022-09-13T16:17:29.572Z,50.81
2022-09-13T16:21:33.227Z,50.63
2022-09-13T16:25:37.820Z,52.43
2022-09-13T16:29:43.628Z,53.17
2022-09-13T16:33:46.624Z,51.66
2022-09-13T16:37:52.334Z,51.78
2022-09-13T16:41:56.164Z,52.71
2022-09-13T16:46:01.116Z,51.78
2022-09-13T16:50:04.836Z,53.36
2022-09-13T16:54:08.436Z,55.42
2022-09-13T16:58:11.509Z,54.85
2022-09-13T17:02:16.802Z,55.35
2022-09-13T17:06:21.000Z,55.16
2022-09-13T17:10:24.792Z,55.47
2022-09-13T17:14:28.358Z,56.43
2022-09-13T17:18:34.045Z,54.73
2022-09-13T17:22:37.841Z,55.66
2022-09-13T17:26:41.460Z,56.23
2022-09-13T17:30:46.317Z,56.60
2022-09-13T17:34:50.852Z,57.02
2022-09-13T17:38:57.844Z,56.24
2022-09-13T17:43:01.255Z,58.49
2022-09-13T17:47:04.758Z,57.65
2022-09-13T17:51:12.416Z,56.81
2022-09-13T17:55:15.709Z,58.27
2022-09-13T17:59:21.159Z,57.95
2022-09-13T18:03:24.852Z,57.69
2022-09-13T18:07:29.195Z,57.56
2022-09-13T18:11:32.625Z,57.27
2022-09-13T18:15:36.261Z,56.87
2022-09-13T18:19:46.413Z,55.91
2022-09-13T18:23:53.390Z,56.93
2022-09-13T18:27:56.800Z,57.84
2022-09-13T18:32:00.672Z,58.30
2022-09-13T18:36:05.977Z,58.38
2022-09-13T18:40:14.506Z,59.04
2022-09-13T18:44:18.899Z,57.48
2022-09-13T18:48:22.521Z,56.74
2022-09-13T18:52:26.246Z,59.79
2022-09-13T18:56:32.894Z,59.18
2022-09-13T19:00:36.822Z,59.98
2022-09-13T19:04:41.051Z,59.37
2022-09-13T19:08:45.086Z,59.15
2022-09-13T19:12:50.259Z,58.86
2022-09-13T19:16:56.503Z,58.36
2022-09-13T19:21:04.046Z,60.15
2022-09-13T19:25:08.601Z,59.69
2022-09-13T19:29:15.497Z,60.75
2022-09-13T19:33:18.447Z,62.19
2022-09-13T19:37:21.909Z,61.95
2022-09-13T19:41:27.512Z,61.25
2022-09-13T19:45:32.606Z,61.33
2022-09-13T19:49:35.832Z,61.71
2022-09-13T19:53:56.382Z,61.73
2022-09-13T19:58:00.941Z,61.16
2022-09-13T20:02:06.701Z,61.73
2022-09-13T20:06:11.796Z,61.99
2022-09-13T20:10:15.500Z,62.89
2022-09-13T20:14:20.916Z,63.98
2022-09-13T20:18:25.873Z,63.92
2022-09-13T20:22:30.021Z,63.75
2022-09-13T20:26:36.472Z,63.46
2022-09-13T20:30:41.699Z,63.58
2022-09-13T20:34:46.684Z,64.90
2022-09-13T20:38:51.744Z,63.81
2022-09-13T20:42:55.322Z,64.56
2022-09-13T20:46:58.929Z,64.43
2022-09-13T20:51:06.445Z,64.07
2022-09-13T20:55:10.816Z,64.75
2022-09-13T20:59:14.264Z,64.73
2022-09-13T21:03:18.345Z,64.54
2022-09-13T21:07:40.490Z,64.59
2022-09-13T21:11:44.100Z,64.33
2022-09-13T21:15:47.288Z,64.92
2022-09-13T21:19:50.685Z,64.73
2022-09-13T21:23:56.814Z,65.51
2022-09-13T21:28:00.230Z,65.41
2022-09-13T21:32:04.656Z,65.73
2022-09-13T21:36:08.921Z,65.53
2022-09-13T21:40:13.991Z,65.52
2022-09-13T21:44:18.421Z,65.71
2022-09-13T21:48:22.246Z,66.07
2022-09-13T21:52:25.907Z,65.51
2022-09-13T21:56:32.697Z,65.11
2022-09-13T22:00:39.402Z,65.18
2022-09-13T22:04:44.087Z,65.46
2022-09-13T22:08:49.561Z,65.76
2022-09-13T22:12:54.600Z,65.85
2022-09-13T22:16:57.790Z,65.91
2022-09-13T22:21:06.319Z,65.21
2022-09-13T22:25:10.458Z,65.91
2022-09-13T22:29:16.292Z,65.46
2022-09-13T22:33:19.811Z,66.76
2022-09-13T22:37:23.421Z,67.35
2022-09-13T22:41:28.604Z,67.56
2022-09-13T22:45:33.753Z,67.08
2022-09-13T22:49:37.036Z,67.61
2022-09-13T22:53:43.103Z,67.20
2022-09-13T22:57:46.597Z,67.91
2022-09-13T23:01:51.174Z,67.76
2022-09-13T23:05:54.741Z,67.60
2022-09-13T23:09:58.430Z,67.63
2022-09-13T23:14:03.709Z,67.77
2022-09-13T23:18:10.217Z,68.27
2022-09-13T23:22:13.806Z,68.87
2022-09-13T23:26:22.962Z,68.64
2022-09-13T23:30:27.165Z,69.20
2022-09-13T23:34:32.043Z,69.27
2022-09-13T23:38:35.202Z,69.53
2022-09-13T23:42:38.589Z,69.77
2022-09-13T23:46:42.485Z,69.63
2022-09-13T23:50:47.267Z,70.44
2022-09-13T23:54:51.447Z,71.23
2022-09-13T23:58:54.559Z,71.75
